createdAt,value
2023-04-10T00:00:38.317Z,8.40
2023-04-10T00:03:06.002Z,8.40
2023-04-10T00:05:33.296Z,8.40
2023-04-10T00:08:00.885Z,8.40
2023-04-10T00:10:30.454Z,8.30
2023-04-10T00:12:57.908Z,8.30
2023-04-10T00:15:24.767Z,8.30
2023-04-10T00:17:55.166Z,8.20
2023-04-10T00:20:23.214Z,8.30
2023-04-10T00:22:50.360Z,8.30
2023-04-10T00:25:17.349Z,8.20
2023-04-10T00:27:44.169Z,8.20
2023-04-10T00:30:11.281Z,8.20
2023-04-10T00:32:38.372Z,8.20
2023-04-10T00:35:05.630Z,8.20
2023-04-10T00:37:32.430Z,8.10
2023-04-10T00:39:59.346Z,8.10
2023-04-10T00:42:26.251Z,8.10
2023-04-10T00:44:53.187Z,8.10
2023-04-10T00:47:20.241Z,8.10
2023-04-10T00:49:47.366Z,8.10
2023-04-10T00:52:14.474Z,8.00
2023-04-10T00:54:41.394Z,8.00
2023-04-10T00:57:08.657Z,8.00
2023-04-10T00:59:36.523Z,8.00
2023-04-10T01:02:04.169Z,8.00
2023-04-10T01:04:32.766Z,7.90
2023-04-10T01:07:09.421Z,7.90
2023-04-10T01:09:44.522Z,7.90
2023-04-10T01:12:23.316Z,7.90
2023-04-10T01:15:08.816Z,7.80
2023-04-10T01:17:59.831Z,7.80
2023-04-10T01:20:31.709Z,7.80
2023-04-10T01:23:27.993Z,7.70
2023-04-10T01:25:57.870Z,7.70
2023-04-10T01:28:30.713Z,7.70
2023-04-10T01:31:01.060Z,7.70
2023-04-10T01:33:34.515Z,7.70
2023-04-10T01:36:05.434Z,7.60
2023-04-10T01:38:33.968Z,7.60
2023-04-10T01:41:02.371Z,7.60
2023-04-10T01:43:32.167Z,7.60
2023-04-10T01:46:01.102Z,7.60
2023-04-10T01:48:28.450Z,7.60
2023-04-10T01:50:56.310Z,7.50
2023-04-10T01:53:24.652Z,7.50
2023-04-10T01:55:53.635Z,7.50
2023-04-10T01:58:20.667Z,7.50
2023-04-10T02:00:47.781Z,7.40
2023-04-10T02:03:15.027Z,7.40
2023-04-10T02:06:04.099Z,7.40
2023-04-10T02:08:55.872Z,7.30
2023-04-10T02:11:42.055Z,7.40
2023-04-10T02:14:11.896Z,7.30
2023-04-10T02:16:39.849Z,7.30
2023-04-10T02:19:08.905Z,7.30
2023-04-10T02:21:36.296Z,7.30
2023-04-10T02:24:03.233Z,7.20
2023-04-10T02:26:30.045Z,7.20
2023-04-10T02:28:56.882Z,7.20
2023-04-10T02:31:24.769Z,7.20
2023-04-10T02:33:52.048Z,7.10
2023-04-10T02:36:19.149Z,7.10
2023-04-10T02:38:46.099Z,7.20
2023-04-10T02:41:12.864Z,7.10
2023-04-10T02:43:40.396Z,7.20
2023-04-10T02:46:07.271Z,7.10
2023-04-10T02:48:34.062Z,7.10
2023-04-10T02:51:00.837Z,7.10
2023-04-10T02:53:27.683Z,7.10
2023-04-10T02:55:55.053Z,7.10
2023-04-10T02:58:24.588Z,7.10
2023-04-10T03:00:52.074Z,7.10
2023-04-10T03:03:19.969Z,7.00
2023-04-10T03:05:49.358Z,7.10
2023-04-10T03:08:17.492Z,7.10
2023-04-10T03:10:46.128Z,7.00
2023-04-10T03:13:12.915Z,7.00
2023-04-10T03:15:39.852Z,7.00
2023-04-10T03:18:07.123Z,7.00
2023-04-10T03:20:34.170Z,7.00
2023-04-10T03:23:01.102Z,7.00
2023-04-10T03:25:27.928Z,7.00
2023-04-10T03:27:54.783Z,7.10
2023-04-10T03:30:21.607Z,7.20
2023-04-10T03:32:48.425Z,7.20
2023-04-10T03:35:15.443Z,7.30
2023-04-10T03:37:42.472Z,7.20
2023-04-10T03:40:10.974Z,7.20
2023-04-10T03:42:37.813Z,7.30
2023-04-10T03:45:06.470Z,7.30
2023-04-10T03:47:34.291Z,7.30
2023-04-10T03:50:01.455Z,7.30
2023-04-10T03:52:28.392Z,7.40
2023-04-10T03:54:55.639Z,7.30
2023-04-10T03:57:22.687Z,7.20
2023-04-10T03:59:49.560Z,7.30
2023-04-10T04:02:16.502Z,7.30
2023-04-10T04:04:44.167Z,7.30
2023-04-10T04:07:12.077Z,7.30
2023-04-10T04:09:39.356Z,7.30
2023-04-10T04:12:06.175Z,7.20
2023-04-10T04:14:33.013Z,7.20
2023-04-10T04:16:59.899Z,7.20
2023-04-10T04:19:26.817Z,7.10
2023-04-10T04:21:53.658Z,7.20
2023-04-10T04:24:20.626Z,7.00
2023-04-10T04:26:47.447Z,7.00
2023-04-10T04:29:14.307Z,7.10
2023-04-10T04:31:41.145Z,7.00
2023-04-10T04:34:07.995Z,7.00
2023-04-10T04:36:34.804Z,7.00
2023-04-10T04:39:01.596Z,7.00
2023-04-10T04:41:30.754Z,6.90
2023-04-10T04:44:02.054Z,7.00
2023-04-10T04:46:29.298Z,6.90
2023-04-10T04:48:56.172Z,7.00
2023-04-10T04:51:23.053Z,7.00
2023-04-10T04:53:50.247Z,6.90
2023-04-10T04:56:17.174Z,7.00
2023-04-10T04:58:43.968Z,6.90
2023-04-10T05:01:11.147Z,6.90
2023-04-10T05:03:38.349Z,6.90
2023-04-10T05:06:05.774Z,6.90
2023-04-10T05:08:32.549Z,6.90
2023-04-10T05:10:59.363Z,6.90
2023-04-10T05:13:26.214Z,6.90
2023-04-10T05:15:53.075Z,6.90
2023-04-10T05:18:23.674Z,6.90
2023-04-10T05:20:50.842Z,6.90
2023-04-10T05:23:17.809Z,6.90
2023-04-10T05:25:44.687Z,7.00
2023-04-10T05:28:11.507Z,6.90
2023-04-10T05:30:38.379Z,6.90
2023-04-10T05:33:05.382Z,7.00
2023-04-10T05:35:32.242Z,7.00
2023-04-10T05:37:59.185Z,7.00
2023-04-10T05:40:26.445Z,7.00
2023-04-10T05:42:53.325Z,7.00
2023-04-10T05:45:20.158Z,7.10
2023-04-10T05:47:47.075Z,7.10
2023-04-10T05:50:14.016Z,7.10
2023-04-10T05:52:40.822Z,7.20
2023-04-10T05:55:08.444Z,7.30
2023-04-10T05:57:35.244Z,7.30
2023-04-10T06:00:02.181Z,7.50
2023-04-10T06:02:29.189Z,7.60
2023-04-10T06:04:56.324Z,7.80
2023-04-10T06:07:23.364Z,7.90
2023-04-10T06:09:50.697Z,8.00
2023-04-10T06:12:17.565Z,8.10
2023-04-10T06:14:44.365Z,8.10
2023-04-10T06:17:11.407Z,8.20
2023-04-10T06:19:38.286Z,8.20
2023-04-10T06:22:05.355Z,8.30
2023-04-10T06:24:32.468Z,8.40
2023-04-10T06:26:59.705Z,8.50
2023-04-10T06:29:26.637Z,8.50
2023-04-10T06:31:53.652Z,8.60
2023-04-10T06:34:20.691Z,8.70
2023-04-10T06:36:47.510Z,8.70
2023-04-10T06:39:14.348Z,8.90
2023-04-10T06:41:41.193Z,9.10
2023-04-10T06:44:08.149Z,9.20
2023-04-10T06:46:35.245Z,9.30
2023-04-10T06:49:02.463Z,9.30
2023-04-10T06:51:29.300Z,9.40
2023-04-10T06:53:56.096Z,9.50
2023-04-10T06:56:22.937Z,9.50
2023-04-10T06:58:49.755Z,9.70
2023-04-10T07:01:17.870Z,9.70
2023-04-10T07:03:45.031Z,9.70
2023-04-10T07:06:12.284Z,9.70
2023-04-10T07:08:39.119Z,9.70
2023-04-10T07:11:06.191Z,9.70
2023-04-10T07:13:35.646Z,9.80
2023-04-10T07:16:02.619Z,9.80
2023-04-10T07:18:29.495Z,9.80
2023-04-10T07:20:56.327Z,9.90
2023-04-10T07:23:23.286Z,9.90
2023-04-10T07:25:51.643Z,9.90
2023-04-10T07:28:18.445Z,9.80
2023-04-10T07:30:45.348Z,9.90
2023-04-10T07:33:12.354Z,9.90
2023-04-10T07:35:39.476Z,10.00
2023-04-10T07:38:06.495Z,10.00
2023-04-10T07:40:33.384Z,10.00
2023-04-10T07:43:00.445Z,10.10
2023-04-10T07:45:28.531Z,10.20
2023-04-10T07:47:56.081Z,10.20
2023-04-10T07:50:23.272Z,10.30
2023-04-10T07:52:50.456Z,10.40
2023-04-10T07:55:17.324Z,10.50
2023-04-10T07:57:44.171Z,10.50
2023-04-10T08:00:12.053Z,10.60
2023-04-10T08:02:40.875Z,10.70
2023-04-10T08:05:08.489Z,10.70
2023-04-10T08:07:36.438Z,10.80
2023-04-10T08:10:03.841Z,10.90
2023-04-10T08:12:33.887Z,10.90
2023-04-10T08:15:00.670Z,10.90
2023-04-10T08:17:27.531Z,11.00
2023-04-10T08:19:54.358Z,11.20
2023-04-10T08:22:21.376Z,11.40
2023-04-10T08:24:48.270Z,11.40
2023-04-10T08:27:16.342Z,11.60
2023-04-10T08:29:43.656Z,11.70
2023-04-10T08:32:10.577Z,11.70
2023-04-10T08:34:37.488Z,11.90
2023-04-10T08:37:11.389Z,11.90
2023-04-10T08:39:39.574Z,12.10
2023-04-10T08:42:07.185Z,12.10
2023-04-10T08:44:35.923Z,12.20
2023-04-10T08:47:03.082Z,12.40
2023-04-10T08:50:09.085Z,12.50
2023-04-10T08:52:39.490Z,12.60
2023-04-10T08:55:09.181Z,12.70
2023-04-10T08:57:39.046Z,12.80
2023-04-10T09:00:20.151Z,12.80
2023-04-10T09:02:55.202Z,12.80
2023-04-10T09:05:23.280Z,12.90
2023-04-10T09:07:50.189Z,12.90
2023-04-10T09:10:17.060Z,13.00
2023-04-10T09:12:48.383Z,13.00
2023-04-10T09:15:16.134Z,13.10
2023-04-10T09:18:01.961Z,13.10
2023-04-10T09:20:30.866Z,13.30
2023-04-10T09:22:58.259Z,13.40
2023-04-10T09:25:34.971Z,13.50
2023-04-10T09:28:07.302Z,13.70
2023-04-10T09:30:36.027Z,13.80
2023-04-10T09:33:03.981Z,13.90
2023-04-10T09:35:38.601Z,14.10
2023-04-10T09:38:16.853Z,14.20
2023-04-10T09:40:45.466Z,14.40
2023-04-10T09:43:26.230Z,14.50
2023-04-10T09:45:55.309Z,14.60
2023-04-10T09:48:23.077Z,14.60
2023-04-10T09:50:50.423Z,14.70
2023-04-10T09:53:21.748Z,14.70
2023-04-10T09:55:49.822Z,14.80
2023-04-10T09:58:17.969Z,14.90
2023-04-10T10:00:49.206Z,15.10
2023-04-10T10:03:18.888Z,15.20
2023-04-10T10:05:50.619Z,15.10
2023-04-10T10:08:18.047Z,15.10
2023-04-10T10:10:48.422Z,15.00
2023-04-10T10:13:26.410Z,15.10
2023-04-10T10:16:15.061Z,15.20
2023-04-10T10:19:14.435Z,15.20
2023-04-10T10:21:44.244Z,15.40
2023-04-10T10:24:13.100Z,15.40
2023-04-10T10:26:40.668Z,15.60
2023-04-10T10:29:11.185Z,15.80
2023-04-10T10:31:38.861Z,15.80
2023-04-10T10:34:09.184Z,15.90
2023-04-10T10:36:37.029Z,16.10
2023-04-10T10:39:12.821Z,16.30
2023-04-10T10:41:48.008Z,16.40
2023-04-10T10:44:23.405Z,16.50
2023-04-10T10:47:06.430Z,16.60
2023-04-10T10:49:56.465Z,16.60
2023-04-10T10:52:57.447Z,16.70
2023-04-10T10:55:36.767Z,16.80
2023-04-10T10:58:08.602Z,16.80
2023-04-10T11:00:50.488Z,16.90
2023-04-10T11:03:17.525Z,16.90
2023-04-10T11:05:56.545Z,17.00
2023-04-10T11:08:40.495Z,17.30
2023-04-10T11:11:09.060Z,17.50
2023-04-10T11:13:41.187Z,17.60
2023-04-10T11:16:12.960Z,17.60
2023-04-10T11:18:45.658Z,17.40
2023-04-10T11:21:14.458Z,17.30
2023-04-10T11:24:07.843Z,17.30
2023-04-10T11:26:43.840Z,17.20
2023-04-10T11:29:16.192Z,17.00
2023-04-10T11:31:45.266Z,17.00
2023-04-10T11:34:12.877Z,17.10
2023-04-10T11:36:41.893Z,17.20
2023-04-10T11:39:18.721Z,17.20
2023-04-10T11:41:47.260Z,17.10
2023-04-10T11:44:28.465Z,17.20
2023-04-10T11:46:55.680Z,17.30
2023-04-10T11:49:28.099Z,17.40
2023-04-10T11:51:55.379Z,17.40
2023-04-10T11:54:24.583Z,17.40
2023-04-10T11:57:04.484Z,17.30
2023-04-10T11:59:33.055Z,17.20
2023-04-10T12:02:15.027Z,17.30
2023-04-10T12:04:44.014Z,17.10
2023-04-10T12:07:11.488Z,17.00
2023-04-10T12:09:38.432Z,17.00
2023-04-10T12:12:07.154Z,17.00
2023-04-10T12:14:36.536Z,17.10
2023-04-10T12:17:05.509Z,17.30
2023-04-10T12:19:33.913Z,17.30
2023-04-10T12:22:03.882Z,17.40
2023-04-10T12:24:46.825Z,17.70
2023-04-10T12:27:27.661Z,18.00
2023-04-10T12:29:56.528Z,18.40
2023-04-10T12:32:23.999Z,18.50
2023-04-10T12:34:58.885Z,18.70
2023-04-10T12:37:46.478Z,18.90
2023-04-10T12:40:14.086Z,19.30
2023-04-10T12:42:44.855Z,19.80
2023-04-10T12:45:13.988Z,20.40
2023-04-10T12:47:49.133Z,20.70
2023-04-10T12:50:17.953Z,20.90
2023-04-10T12:52:46.374Z,21.10
2023-04-10T12:55:18.827Z,21.50
2023-04-10T12:57:51.742Z,21.20
2023-04-10T13:00:19.751Z,20.90
2023-04-10T13:02:48.512Z,20.60
2023-04-10T13:05:15.973Z,20.20
2023-04-10T13:07:42.963Z,19.60
2023-04-10T13:10:10.198Z,19.30
2023-04-10T13:12:38.813Z,19.10
2023-04-10T13:15:07.580Z,18.90
2023-04-10T13:17:34.813Z,18.70
2023-04-10T13:20:01.930Z,18.50
2023-04-10T13:22:28.780Z,18.40
2023-04-10T13:24:55.598Z,18.10
2023-04-10T13:27:22.415Z,17.80
2023-04-10T13:29:49.307Z,17.70
2023-04-10T13:32:16.332Z,17.60
2023-04-10T13:34:43.119Z,17.50
2023-04-10T13:37:15.300Z,17.50
2023-04-10T13:39:43.453Z,17.40
2023-04-10T13:42:10.465Z,17.30
2023-04-10T13:44:40.493Z,17.20
2023-04-10T13:47:07.464Z,17.20
2023-04-10T13:49:34.463Z,17.10
2023-04-10T13:52:01.318Z,17.20
2023-04-10T13:54:28.611Z,17.10
2023-04-10T13:56:56.091Z,17.10
2023-04-10T13:59:23.228Z,17.10
2023-04-10T14:01:52.788Z,17.10
2023-04-10T14:04:20.148Z,17.10
2023-04-10T14:06:47.389Z,17.10
2023-04-10T14:09:14.668Z,17.10
2023-04-10T14:11:41.647Z,17.20
2023-04-10T14:14:08.562Z,17.10
2023-04-10T14:16:35.556Z,17.10
2023-04-10T14:19:03.675Z,17.10
2023-04-10T14:21:31.623Z,17.00
2023-04-10T14:23:59.805Z,16.90
2023-04-10T14:26:27.189Z,16.80
2023-04-10T14:28:54.200Z,16.80
2023-04-10T14:31:21.238Z,16.70
2023-04-10T14:33:48.110Z,16.60
2023-04-10T14:36:15.122Z,16.60
2023-04-10T14:38:42.097Z,16.60
2023-04-10T14:41:09.003Z,16.50
2023-04-10T14:43:35.802Z,16.50
2023-04-10T14:46:02.634Z,16.40
2023-04-10T14:48:29.887Z,16.40
2023-04-10T14:50:58.968Z,16.40
2023-04-10T14:53:25.925Z,16.40
2023-04-10T14:55:52.819Z,16.40
2023-04-10T14:58:19.805Z,16.30
2023-04-10T15:00:47.082Z,16.30
2023-04-10T15:03:14.053Z,16.20
2023-04-10T15:05:41.112Z,16.20
2023-04-10T15:08:08.054Z,16.10
2023-04-10T15:10:37.331Z,16.10
2023-04-10T15:13:06.115Z,16.00
2023-04-10T15:15:32.998Z,16.00
2023-04-10T15:17:59.812Z,15.90
2023-04-10T15:20:26.713Z,15.90
2023-04-10T15:22:53.653Z,16.00
2023-04-10T15:25:20.614Z,15.90
2023-04-10T15:27:47.417Z,15.90
2023-04-10T15:30:14.455Z,15.80
2023-04-10T15:32:41.258Z,15.80
2023-04-10T15:35:08.636Z,15.80
2023-04-10T15:37:36.706Z,15.70
2023-04-10T15:40:12.486Z,15.70
2023-04-10T15:42:39.404Z,15.70
2023-04-10T15:45:08.905Z,15.60
2023-04-10T15:47:35.926Z,15.60
2023-04-10T15:50:02.945Z,15.50
2023-04-10T15:52:31.803Z,15.50
2023-04-10T15:54:59.188Z,15.50
2023-04-10T15:57:26.324Z,15.50
2023-04-10T15:59:58.248Z,15.60
2023-04-10T16:02:25.288Z,15.60
2023-04-10T16:04:52.581Z,15.60
2023-04-10T16:07:20.995Z,15.60
2023-04-10T16:09:47.872Z,15.60
2023-04-10T16:12:17.237Z,15.60
2023-04-10T16:14:44.298Z,15.70
2023-04-10T16:17:11.414Z,15.70
2023-04-10T16:19:38.217Z,15.80
2023-04-10T16:22:05.090Z,15.70
2023-04-10T16:24:32.615Z,15.70
2023-04-10T16:26:59.507Z,15.70
2023-04-10T16:29:27.701Z,15.60
2023-04-10T16:31:54.557Z,15.50
2023-04-10T16:34:21.439Z,15.40
2023-04-10T16:36:48.505Z,15.30
2023-04-10T16:39:15.416Z,15.30
2023-04-10T16:41:42.290Z,15.20
2023-04-10T16:44:09.203Z,15.10
2023-04-10T16:46:36.546Z,15.00
2023-04-10T16:49:04.103Z,14.90
2023-04-10T16:51:31.172Z,14.80
2023-04-10T16:53:58.088Z,14.70
2023-04-10T16:56:25.193Z,14.70
2023-04-10T16:58:52.140Z,14.60
2023-04-10T17:01:27.171Z,14.40
2023-04-10T17:03:56.766Z,14.30
2023-04-10T17:06:23.655Z,14.10
2023-04-10T17:08:50.593Z,14.10
2023-04-10T17:11:19.855Z,13.90
2023-04-10T17:13:48.233Z,13.70
2023-04-10T17:16:17.958Z,13.60
2023-04-10T17:18:45.135Z,13.40
2023-04-10T17:21:13.226Z,13.30
2023-04-10T17:23:40.875Z,13.20
2023-04-10T17:26:13.823Z,13.00
2023-04-10T17:28:41.404Z,12.90
2023-04-10T17:31:08.284Z,12.70
2023-04-10T17:33:35.299Z,12.60
2023-04-10T17:36:02.471Z,12.40
2023-04-10T17:38:29.454Z,12.40
2023-04-10T17:40:56.621Z,12.30
2023-04-10T17:43:23.496Z,12.20
2023-04-10T17:45:50.370Z,12.20
2023-04-10T17:48:18.434Z,12.10
2023-04-10T17:50:45.442Z,12.10
2023-04-10T17:53:15.277Z,12.10
2023-04-10T17:55:42.229Z,12.10
2023-04-10T17:58:09.203Z,12.10
2023-04-10T18:00:36.177Z,12.10
2023-04-10T18:03:03.292Z,12.10
2023-04-10T18:05:30.989Z,12.10
2023-04-10T18:07:57.854Z,12.10
2023-04-10T18:10:25.162Z,12.00
2023-04-10T18:12:52.864Z,12.00
2023-04-10T18:15:19.685Z,12.00
2023-04-10T18:17:46.541Z,12.00
2023-04-10T18:20:13.467Z,12.00
2023-04-10T18:22:40.674Z,12.00
2023-04-10T18:25:08.063Z,12.00
2023-04-10T18:27:35.952Z,11.90
2023-04-10T18:30:02.986Z,11.90
2023-04-10T18:32:29.799Z,11.80
2023-04-10T18:34:56.753Z,11.70
2023-04-10T18:37:23.578Z,11.70
2023-04-10T18:39:51.615Z,11.70
2023-04-10T18:42:18.445Z,11.60
2023-04-10T18:44:45.436Z,11.70
2023-04-10T18:47:12.426Z,11.60
2023-04-10T18:49:39.437Z,11.50
2023-04-10T18:52:07.407Z,11.40
2023-04-10T18:54:39.028Z,11.40
2023-04-10T18:57:07.351Z,11.40
2023-04-10T18:59:34.310Z,11.30
2023-04-10T19:02:01.368Z,11.20
2023-04-10T19:04:28.448Z,11.30
2023-04-10T19:06:55.431Z,11.20
2023-04-10T19:09:22.334Z,11.20
2023-04-10T19:11:51.589Z,11.10
2023-04-10T19:14:18.424Z,11.10
2023-04-10T19:16:46.842Z,11.20
2023-04-10T19:19:13.785Z,11.20
2023-04-10T19:21:40.638Z,11.20
2023-04-10T19:24:07.541Z,11.20
2023-04-10T19:26:34.465Z,11.20
2023-04-10T19:29:01.593Z,11.20
2023-04-10T19:31:30.755Z,11.20
2023-04-10T19:34:02.585Z,11.20
2023-04-10T19:36:29.441Z,11.20
2023-04-10T19:38:57.672Z,11.20
2023-04-10T19:41:24.814Z,11.20
2023-04-10T19:43:52.827Z,11.10
2023-04-10T19:46:20.896Z,11.10
2023-04-10T19:48:48.917Z,11.10
2023-04-10T19:51:16.146Z,11.10
2023-04-10T19:53:43.563Z,11.10
2023-04-10T19:56:10.566Z,11.10
2023-04-10T19:58:40.975Z,11.10
2023-04-10T20:01:08.990Z,11.10
2023-04-10T20:03:37.094Z,11.10
2023-04-10T20:06:07.290Z,11.10
2023-04-10T20:08:34.964Z,11.10
2023-04-10T20:11:40.769Z,11.20
2023-04-10T20:14:07.627Z,11.20
2023-04-10T20:16:34.671Z,11.10
2023-04-10T20:19:03.998Z,11.10
2023-04-10T20:21:32.156Z,11.10
2023-04-10T20:23:59.259Z,11.00
2023-04-10T20:26:28.295Z,11.00
2023-04-10T20:29:04.437Z,11.00
2023-04-10T20:31:33.383Z,10.90
2023-04-10T20:34:01.631Z,10.90
2023-04-10T20:36:28.901Z,10.90
2023-04-10T20:38:57.933Z,10.90
2023-04-10T20:41:26.257Z,10.90
2023-04-10T20:43:53.630Z,10.90
2023-04-10T20:46:23.057Z,10.80
2023-04-10T20:48:49.884Z,10.90
2023-04-10T20:51:16.900Z,10.90
2023-04-10T20:53:43.959Z,10.80
2023-04-10T20:56:10.848Z,10.90
2023-04-10T20:58:37.722Z,10.90
2023-04-10T21:01:04.716Z,10.90
2023-04-10T21:03:32.098Z,10.90
2023-04-10T21:05:59.204Z,10.80
2023-04-10T21:08:25.986Z,10.90
2023-04-10T21:10:52.865Z,10.90
2023-04-10T21:13:19.741Z,10.90
2023-04-10T21:15:48.473Z,10.80
2023-04-10T21:18:15.330Z,10.80
2023-04-10T21:20:43.366Z,10.80
2023-04-10T21:23:10.266Z,10.80
2023-04-10T21:25:38.588Z,10.90
2023-04-10T21:28:05.809Z,10.80
2023-04-10T21:30:32.627Z,10.80
2023-04-10T21:32:59.510Z,10.80
2023-04-10T21:35:27.192Z,10.80
2023-04-10T21:37:57.300Z,10.80
2023-04-10T21:40:25.570Z,10.90
2023-04-10T21:42:54.243Z,10.80
2023-04-10T21:45:22.237Z,10.80
2023-04-10T21:47:49.100Z,10.80
2023-04-10T21:50:16.023Z,10.80
2023-04-10T21:52:43.015Z,10.80
2023-04-10T21:55:10.267Z,10.80
2023-04-10T21:57:37.135Z,10.90
2023-04-10T22:00:04.581Z,10.90
2023-04-10T22:02:31.522Z,10.90
2023-04-10T22:04:58.557Z,10.90
2023-04-10T22:36:03.026Z,10.80
2023-04-10T22:38:29.824Z,10.70
2023-04-10T22:40:56.641Z,10.80
2023-04-10T22:43:23.469Z,10.70
2023-04-10T22:45:50.540Z,10.70
2023-04-10T22:48:17.591Z,10.70
2023-04-10T22:50:45.169Z,10.70
2023-04-10T22:53:12.345Z,10.60
2023-04-10T22:55:39.763Z,10.60
2023-04-10T22:58:07.422Z,10.60
2023-04-10T23:00:34.599Z,10.60
2023-04-10T23:03:01.989Z,10.60
2023-04-10T23:05:29.057Z,10.60
2023-04-10T23:07:56.057Z,10.50
2023-04-10T23:10:22.930Z,10.60
2023-04-10T23:12:49.736Z,10.60
2023-04-10T23:15:16.550Z,10.60
2023-04-10T23:17:43.364Z,10.60
2023-04-10T23:20:10.693Z,10.60
2023-04-10T23:22:37.488Z,10.60
2023-04-10T23:25:04.443Z,10.70
2023-04-10T23:27:31.329Z,10.60
2023-04-10T23:29:58.321Z,10.70
2023-04-10T23:32:25.162Z,10.60
2023-04-10T23:34:51.981Z,10.60
2023-04-10T23:37:18.784Z,10.20
2023-04-10T23:39:45.593Z,9.40
2023-04-10T23:42:12.457Z,8.80
2023-04-10T23:44:40.064Z,8.50
2023-04-10T23:47:07.193Z,8.00
2023-04-10T23:49:35.311Z,7.70
2023-04-10T23:52:02.125Z,7.50
2023-04-10T23:54:30.188Z,7.50
2023-04-10T23:56:57.000Z,7.30
2023-04-10T23:59:23.793Z,7.30
